createdAt,value
2019-01-15T00:05:49.124Z,61.70
2019-01-15T00:12:33.318Z,61.40
2019-01-15T00:19:17.513Z,61.00
2019-01-15T00:26:01.703Z,60.70
2019-01-15T00:32:45.894Z,60.90
2019-01-15T00:39:30.114Z,60.90
2019-01-15T00:46:14.313Z,60.50
2019-01-15T00:52:58.530Z,60.30
2019-01-15T00:59:42.757Z,60.00
2019-01-15T01:06:26.962Z,60.00
2019-01-15T01:13:11.193Z,59.40
2019-01-15T01:19:55.386Z,59.10
2019-01-15T01:26:39.590Z,59.50
2019-01-15T01:33:23.786Z,59.90
2019-01-15T01:40:09.606Z,58.80
2019-01-15T01:46:53.809Z,57.90
2019-01-15T01:53:38.614Z,57.60
2019-01-15T02:00:23.401Z,57.00
2019-01-15T02:07:08.166Z,56.60
2019-01-15T02:13:52.986Z,56.30
2019-01-15T02:20:37.599Z,56.40
2019-01-15T02:27:21.850Z,56.30
2019-01-15T02:34:06.624Z,56.60
2019-01-15T02:40:50.817Z,56.80
2019-01-15T02:47:35.014Z,57.20
2019-01-15T02:54:25.671Z,57.20
2019-01-15T03:01:10.014Z,57.40
2019-01-15T03:07:56.681Z,57.30
2019-01-15T03:14:41.064Z,57.60
2019-01-15T03:21:25.694Z,57.20
2019-01-15T03:28:10.475Z,57.20
2019-01-15T03:34:55.177Z,57.30
2019-01-15T03:41:40.002Z,57.30
2019-01-15T03:48:24.618Z,57.20
2019-01-15T03:55:08.917Z,57.20
2019-01-15T04:01:53.198Z,57.40
2019-01-15T04:08:37.538Z,57.20
2019-01-15T04:15:21.725Z,57.40
2019-01-15T04:22:05.930Z,56.80
2019-01-15T04:28:50.114Z,55.90
2019-01-15T04:35:34.301Z,56.80
2019-01-15T04:42:18.489Z,56.70
2019-01-15T04:49:02.849Z,56.80
2019-01-15T04:55:46.897Z,56.70
2019-01-15T05:02:31.130Z,57.60
2019-01-15T05:09:15.329Z,58.00
2019-01-15T05:15:59.531Z,58.40
2019-01-15T05:22:43.747Z,58.20
2019-01-15T05:29:27.941Z,57.60
2019-01-15T05:36:12.134Z,57.60
2019-01-15T05:42:56.353Z,57.20
2019-01-15T05:49:40.625Z,57.90
2019-01-15T05:56:24.806Z,57.80
2019-01-15T06:03:08.989Z,58.00
2019-01-15T06:09:53.176Z,58.40
2019-01-15T06:16:37.592Z,58.60
2019-01-15T06:23:21.609Z,57.60
2019-01-15T06:30:07.674Z,58.00
2019-01-15T06:36:51.869Z,57.20
2019-01-15T06:43:36.081Z,57.00
2019-01-15T06:50:20.269Z,56.80
2019-01-15T06:57:04.486Z,57.20
2019-01-15T07:03:48.682Z,57.20
2019-01-15T07:10:35.233Z,57.70
2019-01-15T07:17:19.429Z,57.60
2019-01-15T07:24:03.674Z,57.90
2019-01-15T07:30:51.150Z,58.60
2019-01-15T07:37:35.334Z,58.50
2019-01-15T07:44:19.516Z,58.10
2019-01-15T07:51:03.717Z,57.00
2019-01-15T07:57:47.909Z,56.80
2019-01-15T08:04:32.094Z,56.80
2019-01-15T08:11:16.293Z,56.40
2019-01-15T08:18:00.489Z,55.70
2019-01-15T08:24:44.721Z,55.40
2019-01-15T08:31:28.914Z,55.50
2019-01-15T08:38:13.134Z,55.00
2019-01-15T08:44:57.381Z,54.80
2019-01-15T08:51:41.616Z,54.50
2019-01-15T08:58:25.914Z,54.40
2019-01-15T09:05:10.122Z,54.60
2019-01-15T09:11:54.313Z,54.00
2019-01-15T09:18:38.519Z,53.80
2019-01-15T09:25:22.781Z,51.70
2019-01-15T09:32:06.989Z,50.30
2019-01-15T09:38:51.189Z,49.10
2019-01-15T09:45:35.435Z,47.40
2019-01-15T09:52:20.608Z,46.50
2019-01-15T09:59:03.886Z,45.60
2019-01-15T10:05:48.096Z,42.80
2019-01-15T10:12:32.335Z,42.30
2019-01-15T10:19:16.538Z,42.60
2019-01-15T10:26:00.769Z,43.10
2019-01-15T10:32:50.481Z,42.80
2019-01-15T10:39:34.690Z,43.20
2019-01-15T10:46:21.369Z,42.80
2019-01-15T10:53:03.137Z,43.00
2019-01-15T10:59:47.357Z,33.50
2019-01-15T11:06:31.582Z,35.40
2019-01-15T11:13:15.809Z,37.10
2019-01-15T11:20:00.021Z,41.70
2019-01-15T11:26:44.263Z,41.00
2019-01-15T11:33:28.471Z,40.30
2019-01-15T11:40:12.702Z,41.00
2019-01-15T11:46:56.906Z,40.20
2019-01-15T11:53:41.109Z,40.60
2019-01-15T12:00:32.946Z,40.70
2019-01-15T12:07:55.375Z,41.20
2019-01-15T12:14:44.973Z,41.20
2019-01-15T12:21:39.664Z,41.10
2019-01-15T12:28:32.129Z,41.60
2019-01-15T12:35:20.566Z,42.10
2019-01-15T12:44:11.633Z,43.10
2019-01-15T12:51:01.936Z,45.00
2019-01-15T12:57:57.177Z,45.70
2019-01-15T13:04:55.527Z,46.20
2019-01-15T13:11:43.950Z,46.40
2019-01-15T13:18:33.501Z,45.80
2019-01-15T13:25:42.797Z,45.80
2019-01-15T13:32:31.215Z,45.80
2019-01-15T13:40:17.946Z,45.80
2019-01-15T13:47:10.409Z,46.20
2019-01-15T13:55:01.646Z,46.40
2019-01-15T14:01:51.277Z,46.80
2019-01-15T14:08:40.610Z,47.10
2019-01-15T14:15:33.073Z,48.10
2019-01-15T14:22:21.511Z,48.60
2019-01-15T14:29:28.578Z,48.60
2019-01-15T14:36:32.799Z,49.10
2019-01-15T14:43:24.245Z,49.00
2019-01-15T14:50:16.317Z,49.20
2019-01-15T14:57:05.973Z,49.20
2019-01-15T15:03:58.241Z,50.00
2019-01-15T15:12:50.670Z,50.40
2019-01-15T15:19:40.266Z,50.10
2019-01-15T15:26:30.338Z,50.00
2019-01-15T15:33:22.578Z,49.80
2019-01-15T15:40:15.918Z,49.80
2019-01-15T15:47:05.201Z,50.30
2019-01-15T15:55:58.594Z,50.20
2019-01-15T16:02:52.977Z,50.20
2019-01-15T16:09:43.301Z,50.30
2019-01-15T16:16:31.721Z,50.10
2019-01-15T16:23:33.050Z,49.70
2019-01-15T16:30:23.454Z,49.80
2019-01-15T16:37:15.799Z,50.50
2019-01-15T16:44:43.502Z,51.40
2019-01-15T16:51:38.228Z,51.10
2019-01-15T16:59:26.590Z,51.20
2019-01-15T17:06:17.595Z,51.10
2019-01-15T17:15:15.696Z,51.30
2019-01-15T17:23:05.465Z,51.10
2019-01-15T17:37:12.418Z,51.80
2019-01-15T17:44:00.898Z,52.10
2019-01-15T17:50:52.017Z,52.30
2019-01-15T17:57:42.249Z,52.20
2019-01-15T18:04:32.084Z,52.60
2019-01-15T18:11:22.521Z,52.60
2019-01-15T18:18:26.029Z,52.60
2019-01-15T18:25:17.310Z,52.80
2019-01-15T18:34:08.405Z,53.00
2019-01-15T18:41:00.727Z,53.00
2019-01-15T18:47:53.118Z,53.10
2019-01-15T18:54:43.377Z,53.00
2019-01-15T19:01:35.654Z,52.80
2019-01-15T19:08:24.089Z,52.80
2019-01-15T19:15:19.430Z,52.70
2019-01-15T19:23:12.669Z,52.90
2019-01-15T19:30:02.254Z,52.90
2019-01-15T19:36:51.851Z,52.50
2019-01-15T19:43:41.261Z,53.00
2019-01-15T19:50:30.899Z,53.20
2019-01-15T19:58:22.145Z,53.00
2019-01-15T20:05:14.906Z,52.90
2019-01-15T20:12:05.193Z,53.30
2019-01-15T20:19:03.650Z,53.50
2019-01-15T20:26:28.320Z,53.40
2019-01-15T20:33:20.490Z,54.30
2019-01-15T20:40:11.622Z,53.60
2019-01-15T20:47:32.762Z,53.20
2019-01-15T20:54:28.106Z,53.40
2019-01-15T21:01:48.954Z,52.80
2019-01-15T21:08:46.270Z,52.80
2019-01-15T21:16:38.465Z,52.80
2019-01-15T21:23:28.793Z,52.80
2019-01-15T21:30:20.184Z,52.80
2019-01-15T21:37:09.749Z,52.30
2019-01-15T21:43:59.303Z,52.20
2019-01-15T21:51:47.390Z,52.40
2019-01-15T21:58:42.675Z,52.30
2019-01-15T22:05:33.057Z,52.00
2019-01-15T22:13:21.921Z,52.10
2019-01-15T22:20:17.721Z,52.20
2019-01-15T22:27:14.114Z,52.20
2019-01-15T22:34:02.524Z,51.90
2019-01-15T22:40:51.805Z,51.50
2019-01-15T22:47:44.270Z,50.80
2019-01-15T22:54:34.650Z,50.70
2019-01-15T23:01:30.444Z,50.20
2019-01-15T23:08:20.020Z,50.20
2019-01-15T23:15:15.913Z,49.40
2019-01-15T23:22:13.445Z,49.40
2019-01-15T23:31:04.003Z,50.10
2019-01-15T23:37:53.425Z,50.20
2019-01-15T23:44:42.997Z,50.10
2019-01-15T23:51:32.358Z,50.50
2019-01-15T23:58:20.778Z,50.40
